createdAt,value
2022-12-22T00:02:07.180Z,99197.00
2022-12-22T00:04:53.103Z,99185.66
2022-12-22T00:07:40.077Z,99201.25
2022-12-22T00:10:28.989Z,99195.19
2022-12-22T00:13:15.079Z,99190.81
2022-12-22T00:16:00.623Z,99195.09
2022-12-22T00:18:46.418Z,99188.03
2022-12-22T00:21:32.863Z,99178.47
2022-12-22T00:24:20.380Z,99180.25
2022-12-22T00:27:06.840Z,99182.03
2022-12-22T00:29:59.852Z,99176.81
2022-12-22T00:32:52.264Z,99170.88
2022-12-22T00:35:41.192Z,99173.47
2022-12-22T00:38:32.305Z,99163.06
2022-12-22T00:41:19.560Z,99168.31
2022-12-22T00:44:04.989Z,99157.84
2022-12-22T00:46:52.369Z,99162.16
2022-12-22T00:49:38.389Z,99160.44
2022-12-22T00:52:24.212Z,99160.44
2022-12-22T00:55:12.691Z,99168.31
2022-12-22T00:58:01.421Z,99166.53
2022-12-22T01:00:47.540Z,99149.19
2022-12-22T01:03:33.468Z,99161.31
2022-12-22T01:06:21.028Z,99155.22
2022-12-22T01:09:07.463Z,99162.13
2022-12-22T01:11:54.033Z,99146.44
2022-12-22T01:14:41.008Z,99124.03
2022-12-22T01:17:28.304Z,99147.34
2022-12-22T01:20:14.243Z,99142.94
2022-12-22T01:23:00.406Z,99136.91
2022-12-22T01:25:46.110Z,99124.81
2022-12-22T01:28:33.294Z,99139.50
2022-12-22T01:31:35.094Z,99141.22
2022-12-22T01:34:20.809Z,99137.63
2022-12-22T01:37:06.533Z,99135.03
2022-12-22T01:39:52.153Z,99142.03
2022-12-22T01:42:38.264Z,99144.63
2022-12-22T01:45:38.479Z,99129.91
2022-12-22T01:48:29.804Z,99139.41
2022-12-22T01:51:16.176Z,99147.19
2022-12-22T01:54:02.393Z,99128.09
2022-12-22T01:56:47.839Z,99148.81
2022-12-22T01:59:33.642Z,99144.41
2022-12-22T02:02:23.715Z,99140.06
2022-12-22T02:05:12.976Z,99138.28
2022-12-22T02:08:20.372Z,99131.31
2022-12-22T02:11:18.157Z,99122.53
2022-12-22T02:14:13.782Z,99124.22
2022-12-22T02:17:09.949Z,99099.84
2022-12-22T02:20:20.362Z,99107.75
2022-12-22T02:23:11.930Z,99112.06
2022-12-22T02:26:07.369Z,99103.38
2022-12-22T02:28:55.390Z,99107.69
2022-12-22T02:31:41.653Z,99096.44
2022-12-22T02:34:33.029Z,99094.72
2022-12-22T02:37:25.689Z,99099.84
2022-12-22T02:40:18.587Z,99105.00
2022-12-22T02:43:15.096Z,99093.78
2022-12-22T02:46:08.251Z,99087.56
2022-12-22T02:49:00.631Z,99098.03
2022-12-22T02:51:50.502Z,99085.75
2022-12-22T02:54:37.339Z,99097.88
2022-12-22T02:57:25.169Z,99105.72
2022-12-22T03:00:10.658Z,99099.56
2022-12-22T03:02:58.117Z,99097.78
2022-12-22T03:05:43.827Z,99082.16
2022-12-22T03:08:29.653Z,99089.13
2022-12-22T03:11:15.223Z,99082.22
2022-12-22T03:14:00.906Z,99084.75
2022-12-22T03:16:46.702Z,99094.28
2022-12-22T03:19:34.011Z,99089.88
2022-12-22T03:22:19.713Z,99087.22
2022-12-22T03:25:05.464Z,99090.66
2022-12-22T03:27:33.674Z,99084.63
2022-12-22T03:30:01.876Z,99090.75
2022-12-22T03:32:30.095Z,99084.63
2022-12-22T03:34:59.648Z,99083.81
2022-12-22T03:37:27.882Z,99076.84
2022-12-22T03:39:56.163Z,99077.75
2022-12-22T03:42:41.957Z,99068.13
2022-12-22T03:45:29.042Z,99075.06
2022-12-22T03:47:57.253Z,99075.16
2022-12-22T03:50:27.113Z,99077.81
2022-12-22T03:52:55.473Z,99069.00
2022-12-22T03:55:25.165Z,99070.75
2022-12-22T03:57:53.469Z,99071.66
2022-12-22T04:00:22.276Z,99084.00
2022-12-22T04:02:50.626Z,99079.72
2022-12-22T04:05:19.127Z,99071.88
2022-12-22T04:07:48.872Z,99080.59
2022-12-22T04:10:34.727Z,99077.06
2022-12-22T04:13:03.201Z,99073.56
2022-12-22T04:15:33.168Z,99075.25
2022-12-22T04:18:01.462Z,99068.22
2022-12-22T04:20:30.303Z,99061.28
2022-12-22T04:22:59.991Z,99037.91
2022-12-22T04:25:29.761Z,99050.72
2022-12-22T04:27:58.197Z,99042.81
2022-12-22T04:30:26.767Z,99038.41
2022-12-22T04:32:54.979Z,99037.63
2022-12-22T04:35:23.381Z,99041.94
2022-12-22T04:37:51.564Z,99034.09
2022-12-22T04:40:21.269Z,99035.91
2022-12-22T04:42:49.593Z,99043.66
2022-12-22T04:45:17.904Z,99041.94
2022-12-22T04:47:46.094Z,99036.75
2022-12-22T04:50:14.548Z,99031.53
2022-12-22T04:52:42.831Z,99034.16
2022-12-22T04:55:11.229Z,99034.97
2022-12-22T04:57:41.331Z,99034.97
2022-12-22T05:00:11.314Z,99032.41
2022-12-22T05:02:39.656Z,99036.72
2022-12-22T05:05:09.598Z,99015.94
2022-12-22T05:07:38.332Z,99017.50
2022-12-22T05:10:07.225Z,99026.19
2022-12-22T05:12:52.766Z,99024.53
2022-12-22T05:15:22.554Z,99021.13
2022-12-22T05:17:50.878Z,99015.84
2022-12-22T05:20:19.705Z,99021.03
2022-12-22T05:22:48.939Z,99013.22
2022-12-22T05:25:18.085Z,99003.59
2022-12-22T05:27:46.468Z,99014.00
2022-12-22T05:30:16.204Z,99000.94
2022-12-22T05:32:46.255Z,99000.16
2022-12-22T05:35:14.875Z,99001.88
2022-12-22T05:37:43.175Z,99001.91
2022-12-22T05:40:13.533Z,98994.97
2022-12-22T05:42:42.270Z,98998.38
2022-12-22T05:45:15.538Z,98994.94
2022-12-22T05:47:48.846Z,98981.13
2022-12-22T05:50:19.840Z,98994.94
2022-12-22T05:52:48.367Z,98984.56
2022-12-22T05:55:17.285Z,98988.09
2022-12-22T05:57:45.847Z,98991.50
2022-12-22T06:00:16.581Z,98996.63
2022-12-22T06:02:46.992Z,98977.56
2022-12-22T06:05:16.539Z,98964.66
2022-12-22T06:07:44.649Z,98981.03
2022-12-22T06:10:13.818Z,98991.53
2022-12-22T06:12:42.498Z,99001.94
2022-12-22T06:15:13.835Z,98988.84
2022-12-22T06:17:45.054Z,98982.69
2022-12-22T06:20:16.096Z,98991.34
2022-12-22T06:22:44.458Z,98988.00
2022-12-22T06:25:18.189Z,98994.06
2022-12-22T06:27:47.575Z,98985.56
2022-12-22T06:30:16.821Z,98989.94
2022-12-22T06:32:44.998Z,98967.47
2022-12-22T06:35:15.016Z,99009.00
2022-12-22T06:37:43.446Z,98949.34
2022-12-22T06:40:24.192Z,98924.34
2022-12-22T06:43:09.085Z,98979.47
2022-12-22T06:45:43.605Z,98993.41
2022-12-22T06:48:14.193Z,98941.63
2022-12-22T06:50:45.380Z,98962.53
2022-12-22T06:53:14.651Z,98979.53
2022-12-22T06:55:50.076Z,98989.25
2022-12-22T06:58:19.696Z,98945.91
2022-12-22T07:00:51.639Z,99003.81
2022-12-22T07:03:20.594Z,98933.88
2022-12-22T07:05:52.299Z,99002.16
2022-12-22T07:08:20.895Z,98965.72
2022-12-22T07:11:01.416Z,98952.81
2022-12-22T07:13:34.167Z,98977.97
2022-12-22T07:16:03.749Z,98977.03
2022-12-22T07:18:36.254Z,98976.16
2022-12-22T07:21:11.498Z,98964.06
2022-12-22T07:23:41.126Z,98981.19
2022-12-22T07:26:11.313Z,98981.94
2022-12-22T07:28:42.632Z,98945.91
2022-12-22T07:31:25.847Z,98966.63
2022-12-22T07:33:55.317Z,98899.31
2022-12-22T07:36:25.385Z,98976.06
2022-12-22T07:38:55.293Z,98988.09
2022-12-22T07:41:41.146Z,98937.31
2022-12-22T07:44:10.436Z,98952.69
2022-12-22T07:46:40.712Z,98956.16
2022-12-22T07:49:27.336Z,98980.34
2022-12-22T07:51:58.861Z,98904.59
2022-12-22T07:54:41.405Z,98953.66
2022-12-22T07:57:22.796Z,98932.91
2022-12-22T07:59:51.445Z,98964.72
2022-12-22T08:02:20.948Z,98974.28
2022-12-22T08:04:50.230Z,98928.50
2022-12-22T08:07:20.305Z,98970.03
2022-12-22T08:09:48.644Z,98953.59
2022-12-22T08:12:17.987Z,98961.22
2022-12-22T08:14:46.465Z,98981.03
2022-12-22T08:17:14.855Z,98975.84
2022-12-22T08:19:44.497Z,98962.19
2022-12-22T08:22:13.371Z,98982.75
2022-12-22T08:24:43.353Z,98962.00
2022-12-22T08:27:22.259Z,98974.78
2022-12-22T08:29:57.012Z,98937.88
2022-12-22T08:32:25.742Z,98965.25
2022-12-22T08:34:55.612Z,98977.22
2022-12-22T08:37:27.824Z,98980.66
2022-12-22T08:40:02.693Z,98933.28
2022-12-22T08:42:31.341Z,98973.84
2022-12-22T08:45:04.082Z,98932.28
2022-12-22T08:47:32.665Z,98968.34
2022-12-22T08:50:09.479Z,98971.06
2022-12-22T08:52:40.634Z,98947.69
2022-12-22T08:55:11.677Z,98916.59
2022-12-22T08:57:40.043Z,98967.38
2022-12-22T09:00:13.856Z,98918.44
2022-12-22T09:02:46.639Z,98945.06
2022-12-22T09:05:20.331Z,98964.91
2022-12-22T09:07:48.792Z,98968.31
2022-12-22T09:10:18.994Z,98959.59
2022-12-22T09:12:49.328Z,98968.25
2022-12-22T09:15:18.516Z,98900.91
2022-12-22T09:17:47.213Z,98959.59
2022-12-22T09:20:16.081Z,98932.91
2022-12-22T09:22:44.377Z,98945.78
2022-12-22T09:25:14.537Z,98960.63
2022-12-22T09:27:44.602Z,98962.31
2022-12-22T09:30:14.408Z,98916.59
2022-12-22T09:32:42.926Z,98931.13
2022-12-22T09:35:17.822Z,98961.47
2022-12-22T09:37:47.071Z,98964.88
2022-12-22T09:40:15.767Z,98956.06
2022-12-22T09:42:46.101Z,98888.66
2022-12-22T09:45:20.324Z,98918.78
2022-12-22T09:47:55.090Z,98949.03
2022-12-22T09:53:33.096Z,98933.47
2022-12-22T09:56:02.126Z,98909.38
2022-12-22T09:58:36.641Z,98888.56
2022-12-22T10:02:01.695Z,98936.81
2022-12-22T10:04:56.006Z,98911.13
2022-12-22T10:07:31.183Z,98857.63
2022-12-22T10:10:01.428Z,98938.50
2022-12-22T10:12:30.418Z,98845.50
2022-12-22T10:15:03.035Z,98843.72
2022-12-22T10:17:33.780Z,98920.41
2022-12-22T10:20:20.937Z,98844.56
2022-12-22T10:22:53.970Z,98894.53
2022-12-22T10:25:51.859Z,98914.22
2022-12-22T10:28:24.845Z,98919.31
2022-12-22T10:31:13.499Z,98912.50
2022-12-22T10:36:28.279Z,98891.69
2022-12-22T10:39:04.277Z,98883.91
2022-12-22T10:41:39.344Z,98865.91
2022-12-22T10:44:12.289Z,98839.16
2022-12-22T10:46:46.059Z,98879.75
2022-12-22T10:49:20.180Z,98852.06
2022-12-22T10:51:52.486Z,98876.31
2022-12-22T10:54:42.854Z,98859.19
2022-12-22T10:57:27.837Z,98865.19
2022-12-22T10:59:59.595Z,98817.72
2022-12-22T11:02:35.106Z,98858.09
2022-12-22T11:05:09.541Z,98898.72
2022-12-22T11:07:42.268Z,98821.09
2022-12-22T11:10:22.658Z,98903.84
2022-12-22T11:13:25.285Z,98827.91
2022-12-22T11:16:08.177Z,98815.69
2022-12-22T11:19:11.310Z,98895.03
2022-12-22T11:21:46.920Z,98883.75
2022-12-22T11:27:32.024Z,98889.63
2022-12-22T11:30:17.517Z,98827.03
2022-12-22T11:33:26.536Z,98850.22
2022-12-22T11:36:06.514Z,98848.47
2022-12-22T11:39:03.874Z,98871.09
2022-12-22T11:41:47.929Z,98856.53
2022-12-22T11:44:32.726Z,98822.88
2022-12-22T11:47:18.630Z,98822.81
2022-12-22T11:50:58.325Z,98782.41
2022-12-22T11:54:11.908Z,98814.09
2022-12-22T11:56:43.687Z,98812.25
2022-12-22T12:02:49.875Z,98849.19
2022-12-22T12:05:44.367Z,98844.88
2022-12-22T12:08:28.060Z,98843.91
2022-12-22T12:11:11.731Z,98844.69
2022-12-22T12:13:48.929Z,98789.69
2022-12-22T12:16:25.050Z,98850.84
2022-12-22T12:19:28.971Z,98831.03
2022-12-22T12:22:13.706Z,98840.34
2022-12-22T12:25:00.832Z,98841.25
2022-12-22T12:27:56.205Z,98824.09
2022-12-22T12:30:37.888Z,98804.03
2022-12-22T12:33:17.020Z,98816.19
2022-12-22T12:35:56.143Z,98774.13
2022-12-22T12:39:06.197Z,98819.09
2022-12-22T12:41:30.279Z,98827.53
2022-12-22T12:44:01.841Z,98791.22
2022-12-22T12:46:48.858Z,98828.09
2022-12-22T12:49:58.681Z,98819.44
2022-12-22T12:53:10.743Z,98815.16
2022-12-22T12:56:02.992Z,98818.84
2022-12-22T12:58:59.253Z,98822.22
2022-12-22T13:02:06.121Z,98792.72
2022-12-22T13:05:15.314Z,98810.13
2022-12-22T13:08:11.712Z,98790.94
2022-12-22T13:11:37.949Z,98732.41
2022-12-22T13:17:18.539Z,98792.38
2022-12-22T13:19:50.425Z,98775.91
2022-12-22T13:22:30.034Z,98769.94
2022-12-22T13:25:23.832Z,98713.03
2022-12-22T13:27:53.665Z,98725.00
2022-12-22T13:30:24.550Z,98737.03
2022-12-22T13:32:57.120Z,98767.97
2022-12-22T13:35:37.401Z,98754.25
2022-12-22T13:38:32.553Z,98761.34
2022-12-22T13:41:02.864Z,98778.13
2022-12-22T13:43:33.539Z,98753.25
2022-12-22T13:46:06.977Z,98755.91
2022-12-22T13:48:45.111Z,98737.03
2022-12-22T13:51:22.202Z,98754.13
2022-12-22T13:54:08.407Z,98757.63
2022-12-22T13:56:41.302Z,98736.13
2022-12-22T13:59:23.828Z,98737.91
2022-12-22T14:02:02.734Z,98723.38
2022-12-22T14:04:32.721Z,98757.72
2022-12-22T14:07:13.673Z,98693.94
2022-12-22T14:09:46.260Z,98744.78
2022-12-22T14:12:23.691Z,98745.47
2022-12-22T14:17:57.273Z,98772.91
2022-12-22T14:20:28.882Z,98778.00
2022-12-22T14:23:03.469Z,98775.53
2022-12-22T14:25:35.696Z,98764.09
2022-12-22T14:28:08.117Z,98762.22
2022-12-22T14:30:39.333Z,98761.44
2022-12-22T14:33:27.695Z,98767.84
2022-12-22T14:36:15.090Z,98760.88
2022-12-22T14:38:47.470Z,98775.69
2022-12-22T14:41:39.486Z,98759.28
2022-12-22T14:44:13.644Z,98757.38
2022-12-22T14:46:42.577Z,98753.84
2022-12-22T14:49:16.298Z,98741.69
2022-12-22T14:51:44.557Z,98738.22
2022-12-22T14:54:23.580Z,98738.38
2022-12-22T14:56:54.248Z,98742.69
2022-12-22T14:59:25.833Z,98740.06
2022-12-22T15:02:03.413Z,98737.50
2022-12-22T15:04:32.993Z,98736.44
2022-12-22T15:07:45.710Z,98745.25
2022-12-22T15:10:15.530Z,98729.47
2022-12-22T15:12:45.086Z,98735.53
2022-12-22T15:15:20.030Z,98738.97
2022-12-22T15:17:50.447Z,98732.78
2022-12-22T15:20:22.372Z,98731.06
2022-12-22T15:22:51.020Z,98725.91
2022-12-22T15:25:22.864Z,98732.78
2022-12-22T15:27:52.187Z,98724.94
2022-12-22T15:30:28.838Z,98730.19
2022-12-22T15:32:57.843Z,98725.91
2022-12-22T15:35:31.728Z,98727.69
2022-12-22T15:38:00.069Z,98722.22
2022-12-22T15:40:30.347Z,98708.50
2022-12-22T15:42:58.793Z,98722.34
2022-12-22T15:45:27.069Z,98713.72
2022-12-22T15:47:57.216Z,98719.66
2022-12-22T15:50:36.750Z,98706.63
2022-12-22T15:53:09.204Z,98709.13
2022-12-22T15:55:43.244Z,98706.69
2022-12-22T15:58:14.623Z,98703.97
2022-12-22T16:00:42.906Z,98705.69
2022-12-22T16:03:13.363Z,98713.63
2022-12-22T16:05:42.969Z,98711.78
2022-12-22T16:08:18.311Z,98705.78
2022-12-22T16:10:49.078Z,98709.25
2022-12-22T16:13:18.410Z,98694.38
2022-12-22T16:15:46.738Z,98695.38
2022-12-22T16:18:15.075Z,98699.75
2022-12-22T16:20:45.152Z,98687.56
2022-12-22T16:23:17.847Z,98692.81
2022-12-22T16:25:48.921Z,98703.97
2022-12-22T16:28:20.121Z,98687.66
2022-12-22T16:30:48.694Z,98687.56
2022-12-22T16:33:17.824Z,98692.88
2022-12-22T16:35:46.007Z,98694.50
2022-12-22T16:38:19.345Z,98689.28
2022-12-22T16:40:53.177Z,98681.53
2022-12-22T16:46:15.950Z,98677.25
2022-12-22T16:48:46.484Z,98672.84
2022-12-22T16:51:18.792Z,98675.44
2022-12-22T16:53:47.224Z,98667.59
2022-12-22T16:56:23.458Z,98668.59
2022-12-22T16:58:52.101Z,98673.59
2022-12-22T17:01:25.517Z,98671.94
2022-12-22T17:03:57.919Z,98670.16
2022-12-22T17:06:26.377Z,98661.50
2022-12-22T17:08:55.281Z,98682.19
2022-12-22T17:11:29.580Z,98679.63
2022-12-22T17:14:04.966Z,98670.16
2022-12-22T17:16:33.850Z,98668.53
2022-12-22T17:19:02.431Z,98674.41
2022-12-22T17:21:31.345Z,98671.78
2022-12-22T17:24:04.524Z,98676.50
2022-12-22T17:26:35.738Z,98673.06
2022-12-22T17:29:04.207Z,98675.38
2022-12-22T17:31:33.074Z,98678.91
2022-12-22T17:34:01.402Z,98680.53
2022-12-22T17:36:34.813Z,98680.53
2022-12-22T17:39:05.362Z,98675.25
2022-12-22T17:41:35.009Z,98671.72
2022-12-22T17:44:03.501Z,98676.88
2022-12-22T17:46:31.833Z,98643.94
2022-12-22T17:49:00.268Z,98662.06
2022-12-22T17:51:30.774Z,98663.00
2022-12-22T17:54:00.192Z,98649.09
2022-12-22T17:56:30.320Z,98656.81
2022-12-22T17:59:00.226Z,98656.69
2022-12-22T18:01:31.169Z,98650.59
2022-12-22T18:03:59.795Z,98652.22
2022-12-22T18:06:31.911Z,98645.25
2022-12-22T18:09:00.759Z,98642.38
2022-12-22T18:11:29.563Z,98652.94
2022-12-22T18:14:00.167Z,98651.19
2022-12-22T18:16:29.578Z,98651.13
2022-12-22T18:18:57.888Z,98651.97
2022-12-22T18:21:26.821Z,98659.00
2022-12-22T18:23:55.173Z,98657.31
2022-12-22T18:26:25.886Z,98669.47
2022-12-22T18:28:55.077Z,98667.72
2022-12-22T18:31:25.975Z,98666.03
2022-12-22T18:33:54.821Z,98665.97
2022-12-22T18:36:28.896Z,98655.56
2022-12-22T18:38:58.229Z,98653.63
2022-12-22T18:41:28.091Z,98636.38
2022-12-22T18:43:56.660Z,98658.94
2022-12-22T18:46:26.369Z,98658.94
2022-12-22T18:48:57.819Z,98658.84
2022-12-22T18:51:28.969Z,98667.34
2022-12-22T18:53:57.436Z,98661.22
2022-12-22T18:56:25.845Z,98639.63
2022-12-22T18:58:54.846Z,98643.78
2022-12-22T19:01:25.497Z,98659.50
2022-12-22T19:03:59.859Z,98650.91
2022-12-22T19:06:28.141Z,98656.97
2022-12-22T19:08:56.287Z,98664.81
2022-12-22T19:11:28.478Z,98651.81
2022-12-22T19:13:58.420Z,98656.13
2022-12-22T19:16:28.211Z,98638.06
2022-12-22T19:19:00.219Z,98656.13
2022-12-22T19:21:28.728Z,98656.13
2022-12-22T19:23:56.960Z,98658.75
2022-12-22T19:26:28.092Z,98651.81
2022-12-22T19:29:00.860Z,98657.06
2022-12-22T19:31:32.280Z,98651.88
2022-12-22T19:34:05.513Z,98658.84
2022-12-22T19:36:34.868Z,98639.94
2022-12-22T19:39:05.021Z,98664.09
2022-12-22T19:41:42.249Z,98658.94
2022-12-22T19:44:22.424Z,98658.13
2022-12-22T19:46:51.689Z,98664.09
2022-12-22T19:49:23.628Z,98663.34
2022-12-22T19:51:52.385Z,98657.13
2022-12-22T19:54:20.703Z,98664.94
2022-12-22T19:56:52.469Z,98670.22
2022-12-22T19:59:35.598Z,98664.16
2022-12-22T20:02:40.221Z,98655.56
2022-12-22T20:05:30.504Z,98660.72
2022-12-22T20:08:14.774Z,98669.41
2022-12-22T20:10:45.703Z,98671.13
2022-12-22T20:13:22.125Z,98676.34
2022-12-22T20:15:57.378Z,98679.84
2022-12-22T20:18:27.780Z,98678.88
2022-12-22T20:21:04.092Z,98663.53
2022-12-22T20:23:37.540Z,98691.13
2022-12-22T20:26:11.023Z,98697.28
2022-12-22T20:28:40.878Z,98701.78
2022-12-22T20:31:16.522Z,98715.00
2022-12-22T20:36:41.051Z,98697.69
2022-12-22T20:39:23.644Z,98699.63
2022-12-22T20:41:53.635Z,98711.50
2022-12-22T20:44:23.374Z,98713.19
2022-12-22T20:46:51.804Z,98704.53
2022-12-22T20:49:20.769Z,98700.94
2022-12-22T20:51:50.453Z,98708.13
2022-12-22T20:54:18.696Z,98700.94
2022-12-22T20:56:47.417Z,98692.13
2022-12-22T20:59:17.528Z,98700.88
2022-12-22T21:01:46.261Z,98701.72
2022-12-22T21:04:15.259Z,98693.75
2022-12-22T21:06:50.763Z,98706.03
2022-12-22T21:09:22.121Z,98708.69
2022-12-22T21:11:51.327Z,98697.56
2022-12-22T21:14:19.610Z,98713.13
2022-12-22T21:16:48.052Z,98712.25
2022-12-22T21:19:18.586Z,98716.81
2022-12-22T21:21:47.028Z,98708.09
2022-12-22T21:24:15.312Z,98715.06
2022-12-22T21:26:48.805Z,98720.53
2022-12-22T21:29:21.620Z,98722.16
2022-12-22T21:31:49.948Z,98733.44
2022-12-22T21:34:18.691Z,98734.34
2022-12-22T21:36:50.069Z,98732.09
2022-12-22T21:39:34.443Z,98741.53
2022-12-22T21:42:05.286Z,98750.13
2022-12-22T21:44:36.294Z,98743.84
2022-12-22T21:47:05.000Z,98750.75
2022-12-22T21:49:34.885Z,98755.13
2022-12-22T21:52:03.266Z,98750.19
2022-12-22T21:54:31.521Z,98748.25
2022-12-22T21:56:59.789Z,98751.69
2022-12-22T21:59:29.706Z,98759.72
2022-12-22T22:01:58.062Z,98764.00
2022-12-22T22:04:26.503Z,98765.59
2022-12-22T22:06:54.826Z,98762.03
2022-12-22T22:09:25.276Z,98762.03
2022-12-22T22:12:11.219Z,98760.34
2022-12-22T22:14:40.861Z,98766.53
2022-12-22T22:17:11.582Z,98769.13
2022-12-22T22:19:39.823Z,98761.84
2022-12-22T22:22:08.912Z,98772.69
2022-12-22T22:24:40.668Z,98770.56
2022-12-22T22:27:10.186Z,98787.78
2022-12-22T22:29:38.712Z,98786.97
2022-12-22T22:32:11.645Z,98784.34
2022-12-22T22:34:40.061Z,98790.47
2022-12-22T22:37:11.254Z,98768.19
2022-12-22T22:39:40.018Z,98788.75
2022-12-22T22:42:10.956Z,98788.88
2022-12-22T22:44:39.130Z,98794.00
2022-12-22T22:47:08.934Z,98795.75
2022-12-22T22:49:37.188Z,98795.75
2022-12-22T22:52:05.845Z,98790.78
2022-12-22T22:54:34.359Z,98791.06
2022-12-22T22:57:02.464Z,98771.94
2022-12-22T22:59:30.652Z,98793.41
2022-12-22T23:01:59.191Z,98799.28
2022-12-22T23:04:29.033Z,98811.38
2022-12-22T23:06:57.325Z,98814.22
2022-12-22T23:09:25.874Z,98802.19
2022-12-22T23:11:54.953Z,98805.59
2022-12-22T23:14:23.517Z,98815.34
2022-12-22T23:16:52.415Z,98817.00
2022-12-22T23:19:21.048Z,98815.63
2022-12-22T23:21:50.643Z,98821.50
2022-12-22T23:24:18.952Z,98827.66
2022-12-22T23:26:47.096Z,98841.75
2022-12-22T23:29:15.218Z,98838.47
2022-12-22T23:31:43.841Z,98842.41
2022-12-22T23:34:12.641Z,98840.66
2022-12-22T23:36:40.890Z,98837.13
2022-12-22T23:39:11.013Z,98840.69
2022-12-22T23:41:39.212Z,98838.88
2022-12-22T23:44:07.503Z,98837.31
2022-12-22T23:46:38.543Z,98853.22
2022-12-22T23:49:06.997Z,98851.66
2022-12-22T23:51:35.464Z,98862.03
2022-12-22T23:54:03.823Z,98857.63
2022-12-22T23:56:33.779Z,98848.09
2022-12-22T23:59:01.992Z,98861.16
